Time;durP1;ratioP1;P1;durP2;ratioP2;P2;SDS_P1;SDS_P2;PMS_P1;PMS_P2;Temp;Humidity;BMP_temperature;BMP_pressure;BME280_temperature;BME280_humidity;BME280_pressure;Samples;Min_cycle;Max_cycle;Signal;HPM_P1;HPM_P2
2024/01/24 00:01:39;;;;;;;19.73;5.40;;;3.40;99.90;;;;;;5060238;28;20277;-85
2024/01/24 00:04:27;;;;;;;15.47;4.80;;;3.30;99.90;;;;;;5060751;28;20305;-86
2024/01/24 00:07:15;;;;;;;17.13;5.13;;;3.30;99.90;;;;;;5061248;28;20191;-85
2024/01/24 00:10:03;;;;;;;22.47;5.67;;;3.30;99.90;;;;;;5074809;28;20201;-85
2024/01/24 00:12:54;;;;;;;22.60;5.83;;;3.20;99.90;;;;;;5059749;28;20744;-85
2024/01/24 00:15:42;;;;;;;19.53;6.07;;;3.20;99.90;;;;;;5074425;28;20218;-85
2024/01/24 00:18:30;;;;;;;21.60;5.73;;;3.20;99.90;;;;;;5074275;28;20198;-85
2024/01/24 00:21:18;;;;;;;19.03;5.90;;;3.20;99.90;;;;;;5060537;28;20197;-85
2024/01/24 00:24:08;;;;;;;21.23;5.60;;;3.10;99.90;;;;;;5073610;28;20554;-85
2024/01/24 00:26:59;;;;;;;21.93;6.57;;;3.20;99.90;;;;;;5058994;28;20215;-85
2024/01/24 00:29:46;;;;;;;19.80;5.57;;;3.10;99.90;;;;;;5074856;28;20199;-85
2024/01/24 00:32:34;;;;;;;23.50;6.27;;;3.10;99.90;;;;;;5061221;28;20198;-85
2024/01/24 00:35:22;;;;;;;16.10;6.00;;;3.10;99.90;;;;;;5059068;28;20221;-85
2024/01/24 00:38:09;;;;;;;19.00;5.37;;;3.00;99.90;;;;;;5058818;28;20198;-85
2024/01/24 00:40:57;;;;;;;17.37;5.90;;;3.00;99.90;;;;;;5075065;28;20190;-85
2024/01/24 00:43:44;;;;;;;20.33;5.70;;;3.00;99.90;;;;;;5074540;28;20210;-86
2024/01/24 00:46:35;;;;;;;22.53;5.90;;;3.00;99.90;;;;;;5074086;28;20277;-85
2024/01/24 00:49:22;;;;;;;14.30;5.40;;;2.90;99.90;;;;;;5074797;28;20510;-85
2024/01/24 00:52:10;;;;;;;18.67;5.47;;;3.00;99.90;;;;;;5074923;28;20194;-85
2024/01/24 00:54:58;;;;;;;18.63;5.47;;;3.00;99.90;;;;;;5074851;28;20218;-85
2024/01/24 00:57:47;;;;;;;21.27;5.33;;;3.00;99.90;;;;;;5074649;28;20219;-85
2024/01/24 01:00:35;;;;;;;16.77;5.40;;;3.00;99.90;;;;;;5059422;28;20674;-85
2024/01/24 01:03:23;;;;;;;16.57;5.67;;;3.00;99.90;;;;;;5073985;28;20794;-85
2024/01/24 01:06:11;;;;;;;21.90;5.43;;;3.10;99.90;;;;;;5073807;28;20230;-85
2024/01/24 01:09:04;;;;;;;18.53;5.30;;;3.20;99.90;;;;;;5074500;28;20201;-86
2024/01/24 01:11:55;;;;;;;17.70;5.43;;;3.20;99.90;;;;;;5073422;28;20275;-85
2024/01/24 01:14:43;;;;;;;21.07;5.40;;;3.20;99.90;;;;;;5058978;28;21208;-86
2024/01/24 01:17:31;;;;;;;15.93;5.73;;;3.20;99.90;;;;;;5057681;28;20194;-85
2024/01/24 01:20:21;;;;;;;17.90;5.40;;;3.10;99.90;;;;;;5074783;28;20196;-85
2024/01/24 01:23:09;;;;;;;16.50;5.27;;;3.20;99.90;;;;;;5072834;28;20239;-85
2024/01/24 01:25:56;;;;;;;18.47;6.23;;;3.10;99.90;;;;;;5073984;28;20198;-85
2024/01/24 01:28:44;;;;;;;21.33;5.20;;;3.10;99.90;;;;;;5059226;28;20213;-85
2024/01/24 01:31:31;;;;;;;15.80;4.80;;;3.10;99.90;;;;;;5073319;28;20221;-85
2024/01/24 01:34:18;;;;;;;20.03;5.60;;;3.00;99.90;;;;;;5073259;28;20198;-85
2024/01/24 01:37:06;;;;;;;19.43;5.57;;;3.10;99.90;;;;;;5058464;28;20257;-85
2024/01/24 01:39:54;;;;;;;18.67;5.50;;;3.10;99.90;;;;;;5072252;28;20658;-85
2024/01/24 01:42:46;;;;;;;21.83;5.73;;;3.10;99.90;;;;;;5058623;28;20314;-85
2024/01/24 01:45:33;;;;;;;16.03;5.10;;;3.10;99.90;;;;;;5058686;28;20198;-86
2024/01/24 01:48:21;;;;;;;18.47;5.43;;;3.10;99.90;;;;;;5073412;28;20191;-85
2024/01/24 01:51:09;;;;;;;23.90;5.40;;;3.00;99.90;;;;;;5072560;28;20198;-85
2024/01/24 01:53:57;;;;;;;19.87;6.03;;;3.00;99.90;;;;;;5072491;28;20198;-85
2024/01/24 01:56:46;;;;;;;17.30;4.97;;;3.00;99.90;;;;;;5073793;28;20709;-85
2024/01/24 01:59:36;;;;;;;20.20;5.50;;;3.00;99.90;;;;;;5073543;28;20205;-86
2024/01/24 02:02:24;;;;;;;18.60;5.67;;;3.00;99.90;;;;;;5073437;28;20339;-85
2024/01/24 02:05:16;;;;;;;19.57;5.70;;;3.00;99.90;;;;;;5060444;28;20304;-85
2024/01/24 02:08:05;;;;;;;19.30;4.97;;;3.00;99.90;;;;;;5074041;28;20685;-86
2024/01/24 02:10:53;;;;;;;21.83;5.43;;;3.00;99.90;;;;;;5073273;28;20562;-86
2024/01/24 02:13:42;;;;;;;18.63;5.60;;;2.90;99.90;;;;;;5075069;28;20615;-85
2024/01/24 02:16:30;;;;;;;20.23;5.93;;;2.90;99.90;;;;;;5071600;28;20221;-85
2024/01/24 02:19:17;;;;;;;16.17;5.57;;;2.90;99.90;;;;;;5072553;28;20202;-86
2024/01/24 02:22:05;;;;;;;15.97;5.50;;;2.90;99.90;;;;;;5057313;28;20197;-86
2024/01/24 02:24:53;;;;;;;19.70;5.33;;;2.90;99.90;;;;;;5073080;28;20224;-85
2024/01/24 02:27:40;;;;;;;18.50;5.57;;;2.90;99.90;;;;;;5058223;28;20253;-85
2024/01/24 02:30:30;;;;;;;16.70;5.30;;;2.90;99.90;;;;;;5058571;28;20720;-85
2024/01/24 02:33:18;;;;;;;16.17;4.97;;;2.90;99.90;;;;;;5056894;28;20279;-85
2024/01/24 02:36:05;;;;;;;16.90;5.30;;;2.90;99.90;;;;;;5056841;28;20218;-85
2024/01/24 02:38:53;;;;;;;19.40;5.93;;;2.90;99.90;;;;;;5071263;28;20192;-85
2024/01/24 02:41:45;;;;;;;14.80;5.27;;;2.80;99.90;;;;;;5045562;28;20224;-85
2024/01/24 02:44:32;;;;;;;17.07;4.83;;;2.90;99.90;;;;;;5057375;28;20655;-85
2024/01/24 02:47:22;;;;;;;17.70;4.90;;;2.90;99.90;;;;;;5072216;28;20203;-85
2024/01/24 02:50:10;;;;;;;14.00;5.40;;;2.90;99.90;;;;;;5057457;28;20194;-85
2024/01/24 02:53:01;;;;;;;16.83;5.13;;;2.80;99.90;;;;;;5072749;28;20677;-85
2024/01/24 02:55:48;;;;;;;14.73;5.03;;;2.90;99.90;;;;;;5057874;28;20307;-85
2024/01/24 02:58:36;;;;;;;13.23;5.17;;;2.80;99.90;;;;;;5057338;28;20196;-85
2024/01/24 03:01:24;;;;;;;19.90;5.17;;;2.80;99.90;;;;;;5073515;28;20197;-85
2024/01/24 03:04:12;;;;;;;15.90;5.50;;;2.80;99.90;;;;;;5071916;28;20300;-86
2024/01/24 03:06:59;;;;;;;19.87;5.23;;;2.70;99.90;;;;;;5057616;28;20190;-85
2024/01/24 03:09:47;;;;;;;19.77;6.00;;;2.80;99.90;;;;;;5057286;28;20197;-85
2024/01/24 03:12:35;;;;;;;15.57;5.13;;;2.80;99.90;;;;;;5056625;28;20235;-85
2024/01/24 03:15:24;;;;;;;14.03;5.27;;;2.80;99.90;;;;;;5071499;28;20653;-85
2024/01/24 03:18:12;;;;;;;15.10;5.27;;;2.80;99.90;;;;;;5070769;28;20215;-85
2024/01/24 03:21:00;;;;;;;15.83;4.27;;;2.80;99.90;;;;;;5073068;28;20808;-86
2024/01/24 03:23:47;;;;;;;14.47;4.77;;;2.80;99.90;;;;;;5071926;28;20270;-85
2024/01/24 03:26:34;;;;;;;14.87;4.90;;;2.80;99.90;;;;;;5071973;28;20217;-85
2024/01/24 03:29:22;;;;;;;16.83;5.10;;;2.80;99.90;;;;;;5074224;28;20587;-85
2024/01/24 03:32:10;;;;;;;16.77;5.10;;;2.80;99.90;;;;;;5075731;28;20686;-85
2024/01/24 03:34:59;;;;;;;17.17;4.80;;;2.70;99.90;;;;;;5061161;28;20244;-85
2024/01/24 03:37:46;;;;;;;12.17;4.57;;;2.70;99.90;;;;;;5076062;28;20197;-85
2024/01/24 03:40:34;;;;;;;15.70;5.07;;;2.70;99.90;;;;;;5076780;28;20208;-85
2024/01/24 03:43:22;;;;;;;15.00;4.50;;;2.70;99.90;;;;;;5075142;28;20187;-85
2024/01/24 03:46:10;;;;;;;17.80;4.80;;;2.80;99.90;;;;;;5074391;28;20699;-85
2024/01/24 03:48:57;;;;;;;13.40;4.73;;;2.70;99.90;;;;;;5074738;28;20244;-85
2024/01/24 03:51:45;;;;;;;17.83;4.60;;;2.70;99.90;;;;;;5075203;28;20194;-85
2024/01/24 03:54:33;;;;;;;16.20;4.63;;;2.80;99.90;;;;;;5061344;28;20500;-86
2024/01/24 03:57:20;;;;;;;14.07;4.60;;;2.80;99.90;;;;;;5060452;28;20210;-86
2024/01/24 04:00:10;;;;;;;11.80;4.30;;;2.80;99.90;;;;;;5061798;28;20191;-86
2024/01/24 04:02:58;;;;;;;12.97;4.43;;;2.90;99.90;;;;;;5059701;28;20643;-87
2024/01/24 04:05:46;;;;;;;14.10;4.20;;;2.80;99.90;;;;;;5075623;28;20232;-86
2024/01/24 04:08:33;;;;;;;12.33;4.73;;;2.90;99.90;;;;;;5061526;28;20204;-85
2024/01/24 04:11:21;;;;;;;12.17;4.60;;;2.90;99.90;;;;;;5074915;28;20242;-85
2024/01/24 04:14:09;;;;;;;10.60;4.37;;;3.00;99.90;;;;;;5073850;28;20198;-85
2024/01/24 04:16:56;;;;;;;16.97;4.90;;;3.00;99.90;;;;;;5074467;28;20338;-86
2024/01/24 04:19:44;;;;;;;12.37;4.87;;;3.00;99.90;;;;;;5074209;28;20205;-85
2024/01/24 04:22:32;;;;;;;15.07;5.00;;;3.00;99.90;;;;;;5074780;28;20264;-84
2024/01/24 04:25:20;;;;;;;16.80;4.30;;;3.00;99.90;;;;;;5059426;28;20216;-85
2024/01/24 04:28:09;;;;;;;13.77;4.77;;;3.00;99.90;;;;;;5074659;28;20211;-85
2024/01/24 04:30:56;;;;;;;9.77;4.37;;;3.00;99.90;;;;;;5075155;28;20275;-85
2024/01/24 04:33:44;;;;;;;16.03;4.73;;;3.00;99.90;;;;;;5074564;28;20339;-85
2024/01/24 04:36:32;;;;;;;13.63;4.67;;;3.00;99.90;;;;;;5059386;28;20225;-85
2024/01/24 04:39:20;;;;;;;13.33;4.47;;;3.00;99.90;;;;;;5072974;28;20626;-85
2024/01/24 04:42:07;;;;;;;11.60;4.70;;;3.10;99.90;;;;;;5074824;28;20221;-85
2024/01/24 04:45:03;;;;;;;16.50;5.20;;;3.10;99.90;;;;;;5060178;28;20199;-85
2024/01/24 04:47:50;;;;;;;12.07;4.73;;;3.10;99.90;;;;;;5060159;28;20194;-85
2024/01/24 04:50:38;;;;;;;13.80;4.70;;;3.10;99.90;;;;;;5073595;28;20269;-85
2024/01/24 04:53:26;;;;;;;15.60;5.33;;;3.20;99.90;;;;;;5073815;28;20648;-85
2024/01/24 04:56:14;;;;;;;14.00;4.20;;;3.10;99.90;;;;;;5059365;28;20240;-85
2024/01/24 04:59:01;;;;;;;13.97;5.10;;;3.20;99.90;;;;;;5058891;28;20271;-85
2024/01/24 05:01:49;;;;;;;11.00;4.53;;;3.20;99.90;;;;;;5059443;28;20263;-85
2024/01/24 05:04:37;;;;;;;13.30;4.83;;;3.10;99.90;;;;;;5073294;28;20230;-85
2024/01/24 05:07:24;;;;;;;10.97;4.50;;;3.20;99.90;;;;;;5072889;28;20247;-86
2024/01/24 05:10:12;;;;;;;12.10;4.20;;;3.20;99.90;;;;;;5059130;28;20194;-85
2024/01/24 05:12:59;;;;;;;13.90;4.30;;;3.20;99.90;;;;;;5073186;28;20213;-85
2024/01/24 05:15:47;;;;;;;13.20;4.43;;;3.10;99.90;;;;;;5058390;28;20690;-86
2024/01/24 05:18:35;;;;;;;11.20;4.33;;;3.20;99.90;;;;;;5058867;28;20280;-85
2024/01/24 05:21:23;;;;;;;13.77;4.70;;;3.30;99.90;;;;;;5058917;28;20193;-85
2024/01/24 05:24:10;;;;;;;13.33;4.90;;;3.30;99.90;;;;;;5074072;28;20252;-85
2024/01/24 05:26:58;;;;;;;11.57;4.33;;;3.30;99.90;;;;;;5073411;28;20486;-86
2024/01/24 05:29:46;;;;;;;11.43;4.37;;;3.20;99.90;;;;;;5072794;28;20202;-86
2024/01/24 05:32:34;;;;;;;14.67;4.50;;;3.20;99.90;;;;;;5073429;28;20281;-85
2024/01/24 05:35:22;;;;;;;11.70;4.80;;;3.30;99.90;;;;;;5058509;28;20277;-85
2024/01/24 05:38:09;;;;;;;11.03;4.60;;;3.30;99.90;;;;;;5058787;28;20328;-85
2024/01/24 05:40:56;;;;;;;12.93;4.20;;;3.40;99.90;;;;;;5071863;28;20278;-85
2024/01/24 05:43:44;;;;;;;12.40;4.90;;;3.40;99.90;;;;;;5072950;28;20198;-85
2024/01/24 05:46:31;;;;;;;14.50;4.93;;;3.40;99.90;;;;;;5072444;28;20201;-85
2024/01/24 05:49:19;;;;;;;14.50;4.83;;;3.40;99.90;;;;;;5072103;28;20201;-85
2024/01/24 05:52:07;;;;;;;20.10;5.20;;;3.40;99.90;;;;;;5058290;28;20217;-84
2024/01/24 05:54:54;;;;;;;10.30;4.63;;;3.40;99.90;;;;;;5073672;28;20189;-85
2024/01/24 05:57:42;;;;;;;16.93;5.23;;;3.50;99.90;;;;;;5057538;28;20240;-85
2024/01/24 06:00:30;;;;;;;15.27;4.63;;;3.50;99.90;;;;;;5057640;28;20204;-85
2024/01/24 06:03:17;;;;;;;11.33;4.80;;;3.50;99.90;;;;;;5072806;28;20193;-85
2024/01/24 06:06:06;;;;;;;12.30;4.63;;;3.60;99.90;;;;;;5073612;28;20238;-84
2024/01/24 06:08:54;;;;;;;13.37;5.20;;;3.50;99.90;;;;;;5072346;28;20681;-85
2024/01/24 06:11:41;;;;;;;15.90;5.57;;;3.50;99.90;;;;;;5071447;28;20710;-85
2024/01/24 06:14:28;;;;;;;16.03;5.17;;;3.50;99.90;;;;;;5072168;28;20543;-84
2024/01/24 06:17:16;;;;;;;15.63;5.10;;;3.50;99.90;;;;;;5072666;28;20271;-84
2024/01/24 06:20:04;;;;;;;12.23;5.03;;;3.50;99.90;;;;;;5057803;28;20197;-84
2024/01/24 06:22:51;;;;;;;14.63;5.03;;;3.50;99.90;;;;;;5072013;28;20217;-85
2024/01/24 06:25:39;;;;;;;14.53;5.37;;;3.50;99.90;;;;;;5056818;28;20197;-85
2024/01/24 06:28:27;;;;;;;14.37;5.27;;;3.50;99.90;;;;;;5072165;28;20190;-85
2024/01/24 06:31:15;;;;;;;15.40;5.80;;;3.40;99.90;;;;;;5071770;28;20259;-86
2024/01/24 06:34:03;;;;;;;19.80;5.83;;;3.20;99.90;;;;;;5057431;28;20268;-86
2024/01/24 06:36:51;;;;;;;18.47;6.00;;;3.10;99.90;;;;;;5057383;28;20601;-84
2024/01/24 06:39:38;;;;;;;15.63;5.60;;;2.90;99.90;;;;;;5072698;28;20196;-84
2024/01/24 06:42:26;;;;;;;20.07;5.93;;;2.70;99.90;;;;;;5057475;28;20214;-84
2024/01/24 06:45:13;;;;;;;15.87;5.10;;;2.60;99.90;;;;;;5057375;28;20195;-84
2024/01/24 06:48:01;;;;;;;18.20;6.17;;;2.50;99.90;;;;;;5072365;28;20202;-85
2024/01/24 06:50:48;;;;;;;15.77;6.13;;;2.50;99.90;;;;;;5057548;28;20199;-83
2024/01/24 06:53:36;;;;;;;17.60;6.10;;;2.40;99.90;;;;;;5072171;28;20208;-83
2024/01/24 06:56:23;;;;;;;17.03;6.23;;;2.30;99.90;;;;;;5072183;28;20769;-84
2024/01/24 06:59:11;;;;;;;17.40;6.20;;;2.20;99.90;;;;;;5072842;28;20608;-83
2024/01/24 07:01:59;;;;;;;19.57;6.37;;;2.20;99.90;;;;;;5072038;28;20239;-83
2024/01/24 07:05:27;;;;;;;18.07;6.30;;;2.10;99.90;;;;;;5046347;28;20227;-84
2024/01/24 07:08:40;;;;;;;19.13;6.33;;;2.00;99.90;;;;;;5032182;28;20199;-86
2024/01/24 07:11:28;;;;;;;17.57;6.37;;;2.00;99.90;;;;;;5035493;28;20247;-84
2024/01/24 07:14:19;;;;;;;21.43;6.73;;;2.00;99.90;;;;;;5052347;28;20187;-85
2024/01/24 07:17:07;;;;;;;21.87;7.20;;;2.10;99.90;;;;;;5046902;28;20206;-85
2024/01/24 07:19:55;;;;;;;26.03;7.47;;;2.10;99.90;;;;;;5046600;28;20218;-84
2024/01/24 07:22:42;;;;;;;17.73;6.20;;;2.10;99.90;;;;;;5060724;28;20205;-85
2024/01/24 07:25:30;;;;;;;20.37;6.40;;;2.20;99.90;;;;;;5046990;28;20457;-86
2024/01/24 07:28:18;;;;;;;17.87;6.73;;;2.20;99.90;;;;;;5021390;28;20566;-84
2024/01/24 07:31:06;;;;;;;19.07;6.70;;;2.20;99.90;;;;;;5022201;28;20200;-83
2024/01/24 07:33:54;;;;;;;18.87;6.60;;;2.30;99.90;;;;;;5035016;28;20206;-86
2024/01/24 07:36:43;;;;;;;18.70;5.73;;;2.30;99.90;;;;;;5019989;28;20224;-84
2024/01/24 07:39:31;;;;;;;17.10;6.57;;;2.30;99.90;;;;;;5035493;28;20715;-85
2024/01/24 07:42:19;;;;;;;16.53;5.57;;;2.50;99.90;;;;;;5035037;28;20218;-84
2024/01/24 07:45:09;;;;;;;18.40;7.00;;;2.40;99.90;;;;;;5019718;28;20243;-85
2024/01/24 07:47:56;;;;;;;13.67;5.13;;;2.40;99.90;;;;;;5035262;28;20200;-85
2024/01/24 07:50:44;;;;;;;20.23;6.00;;;2.50;99.90;;;;;;5036591;28;20199;-85
2024/01/24 07:53:31;;;;;;;12.70;5.20;;;2.50;99.90;;;;;;5036190;28;20203;-84
2024/01/24 07:56:21;;;;;;;12.73;4.80;;;2.50;99.90;;;;;;5022052;28;20222;-84
2024/01/24 07:59:16;;;;;;;17.50;5.60;;;2.60;99.90;;;;;;5035718;28;20207;-82
2024/01/24 08:02:06;;;;;;;14.53;5.07;;;2.60;99.90;;;;;;5034946;28;20278;-83
2024/01/24 08:04:53;;;;;;;14.17;5.73;;;2.60;99.90;;;;;;5043641;28;20222;-83
2024/01/24 08:07:41;;;;;;;15.17;5.23;;;2.60;99.90;;;;;;5054516;28;20202;-83
2024/01/24 08:10:29;;;;;;;14.17;5.87;;;2.70;99.90;;;;;;5053695;28;20670;-83
2024/01/24 08:13:16;;;;;;;13.47;5.50;;;2.70;99.90;;;;;;5054380;28;20221;-82
2024/01/24 08:16:04;;;;;;;15.20;5.60;;;2.70;99.90;;;;;;5055225;28;20221;-83
2024/01/24 08:18:53;;;;;;;14.73;6.07;;;2.70;99.90;;;;;;5054653;28;20561;-83
2024/01/24 08:21:41;;;;;;;14.30;5.40;;;2.70;99.90;;;;;;5054156;28;20195;-83
2024/01/24 08:24:28;;;;;;;11.27;5.40;;;2.80;99.90;;;;;;5055189;28;20195;-81
2024/01/24 08:27:17;;;;;;;14.93;5.47;;;2.80;99.90;;;;;;5054687;28;20207;-82
2024/01/24 08:30:05;;;;;;;18.27;6.10;;;2.80;99.90;;;;;;5054033;28;20696;-82
2024/01/24 08:32:53;;;;;;;17.43;6.00;;;2.90;99.90;;;;;;5041387;28;20558;-82
2024/01/24 08:35:41;;;;;;;14.03;5.73;;;2.80;99.90;;;;;;5055114;28;20191;-83
2024/01/24 08:38:30;;;;;;;16.10;6.07;;;2.90;99.90;;;;;;5040303;28;20191;-83
2024/01/24 08:41:17;;;;;;;14.77;6.10;;;2.90;99.90;;;;;;5054874;28;20238;-81
2024/01/24 08:44:05;;;;;;;15.07;5.80;;;2.90;99.90;;;;;;5054154;28;20191;-84
2024/01/24 08:46:52;;;;;;;11.87;5.50;;;2.80;99.90;;;;;;5053800;28;20272;-86
2024/01/24 08:49:40;;;;;;;14.70;5.67;;;2.90;99.90;;;;;;5039537;28;20653;-87
2024/01/24 08:52:28;;;;;;;13.70;5.33;;;2.90;99.90;;;;;;5041271;28;20197;-87
2024/01/24 08:55:16;;;;;;;11.83;5.40;;;2.80;99.90;;;;;;5054101;28;20195;-87
2024/01/24 08:58:04;;;;;;;10.67;5.37;;;3.00;99.90;;;;;;5039608;28;20229;-85
2024/01/24 09:00:52;;;;;;;11.63;5.73;;;3.00;99.90;;;;;;5054651;28;20200;-85
2024/01/24 09:03:41;;;;;;;12.50;5.83;;;3.00;99.90;;;;;;5054330;28;20198;-85
2024/01/24 09:06:30;;;;;;;14.53;5.63;;;3.00;99.90;;;;;;5018953;28;20196;-85
2024/01/24 09:09:19;;;;;;;13.23;5.27;;;3.00;99.90;;;;;;5018849;28;20194;-81
2024/01/24 09:12:06;;;;;;;10.87;5.20;;;3.00;99.90;;;;;;5019984;28;20219;-82
2024/01/24 09:14:55;;;;;;;10.00;5.40;;;3.00;99.90;;;;;;5033850;28;20199;-81
2024/01/24 09:17:43;;;;;;;10.60;5.57;;;3.10;99.90;;;;;;5034584;28;20297;-81
2024/01/24 09:20:34;;;;;;;10.47;5.60;;;3.10;99.90;;;;;;5034654;28;20210;-82
2024/01/24 09:23:22;;;;;;;9.83;5.63;;;3.10;99.90;;;;;;5035358;28;20301;-83
2024/01/24 09:26:10;;;;;;;12.37;5.53;;;3.10;99.90;;;;;;5033936;28;20454;-82
2024/01/24 09:28:58;;;;;;;8.70;4.93;;;3.20;99.90;;;;;;5020191;28;20196;-83
2024/01/24 09:31:46;;;;;;;10.57;4.50;;;3.20;99.90;;;;;;5031768;28;20192;-83
2024/01/24 09:34:34;;;;;;;8.37;4.73;;;3.20;99.90;;;;;;5033735;28;20719;-83
2024/01/24 09:37:22;;;;;;;9.13;4.90;;;3.30;99.90;;;;;;5019390;28;20231;-82
2024/01/24 09:40:14;;;;;;;9.90;5.47;;;3.30;99.90;;;;;;5019977;28;20202;-82
2024/01/24 09:43:07;;;;;;;8.63;4.60;;;3.40;99.90;;;;;;5019621;28;20710;-82
2024/01/24 09:45:57;;;;;;;8.73;4.80;;;3.50;99.90;;;;;;5034207;28;20275;-82
2024/01/24 09:48:46;;;;;;;7.83;4.53;;;3.50;99.90;;;;;;5033762;28;20195;-83
2024/01/24 09:51:35;;;;;;;11.67;4.40;;;3.50;99.90;;;;;;5032681;28;20191;-80
2024/01/24 09:54:24;;;;;;;7.33;4.43;;;3.60;99.90;;;;;;5019207;28;20200;-80
2024/01/24 09:57:12;;;;;;;7.87;4.37;;;3.60;99.90;;;;;;5029352;28;20224;-80
2024/01/24 10:00:00;;;;;;;8.40;4.40;;;3.60;99.90;;;;;;5018649;28;20287;-80
2024/01/24 10:02:48;;;;;;;7.00;4.23;;;3.70;99.90;;;;;;5018432;28;20194;-81
2024/01/24 10:05:37;;;;;;;7.93;4.27;;;3.70;99.90;;;;;;5042277;28;20230;-82
2024/01/24 10:08:26;;;;;;;6.93;3.97;;;3.80;99.90;;;;;;5038641;28;20209;-81
2024/01/24 10:11:13;;;;;;;9.40;4.13;;;3.80;99.90;;;;;;5052611;28;20225;-81
2024/01/24 10:14:00;;;;;;;7.00;3.77;;;3.90;99.90;;;;;;5051605;28;20193;-81
2024/01/24 10:16:50;;;;;;;6.63;3.67;;;3.90;99.90;;;;;;5052477;28;20349;-82
2024/01/24 10:19:38;;;;;;;7.17;4.13;;;4.00;99.90;;;;;;5037349;28;20773;-81
2024/01/24 10:22:25;;;;;;;7.40;3.80;;;4.00;99.90;;;;;;5038997;28;20198;-81
2024/01/24 10:25:13;;;;;;;5.90;3.50;;;4.10;99.90;;;;;;5053089;28;20253;-80
2024/01/24 10:28:01;;;;;;;5.50;3.63;;;4.10;99.90;;;;;;5052071;28;20706;-80
2024/01/24 10:30:49;;;;;;;4.90;3.47;;;4.10;99.90;;;;;;5038802;28;20279;-79
2024/01/24 10:33:38;;;;;;;5.10;3.63;;;4.20;99.90;;;;;;5037537;28;20218;-80
2024/01/24 10:36:28;;;;;;;5.40;3.47;;;4.20;99.90;;;;;;5051613;28;20194;-81
2024/01/24 10:39:22;;;;;;;9.00;3.87;;;4.30;99.90;;;;;;5052126;28;20191;-80
2024/01/24 10:42:12;;;;;;;6.63;3.80;;;4.40;99.90;;;;;;5037026;28;20210;-81
2024/01/24 10:45:07;;;;;;;5.47;3.53;;;4.50;99.90;;;;;;5051453;28;20705;-80
2024/01/24 10:47:55;;;;;;;7.03;3.77;;;4.50;99.90;;;;;;5052759;28;20569;-81
2024/01/24 10:50:43;;;;;;;7.57;4.23;;;4.60;99.90;;;;;;5052251;28;20190;-80
2024/01/24 10:53:31;;;;;;;6.93;3.80;;;4.70;99.90;;;;;;5052065;28;20206;-81
2024/01/24 10:56:21;;;;;;;5.60;3.63;;;4.80;99.90;;;;;;5050700;28;20214;-79
2024/01/24 10:59:12;;;;;;;8.13;3.80;;;4.90;99.90;;;;;;5050734;28;20195;-79
2024/01/24 11:02:00;;;;;;;7.03;3.90;;;5.00;99.90;;;;;;5051662;28;20187;-81
2024/01/24 11:04:49;;;;;;;5.27;3.50;;;5.20;99.90;;;;;;5051159;28;20235;-80
2024/01/24 11:07:54;;;;;;;5.77;3.53;;;5.10;99.90;;;;;;5051878;28;20568;-79
2024/01/24 11:10:44;;;;;;;6.90;3.93;;;5.20;99.90;;;;;;5023133;28;20214;-79
2024/01/24 11:13:34;;;;;;;5.60;3.67;;;5.30;99.90;;;;;;5051886;28;20206;-80
2024/01/24 11:16:34;;;;;;;4.90;3.50;;;5.30;99.90;;;;;;5051697;28;20208;-81
2024/01/24 11:19:23;;;;;;;5.73;3.50;;;5.40;99.90;;;;;;5051191;28;20210;-80
2024/01/24 11:22:12;;;;;;;6.17;3.90;;;5.50;99.90;;;;;;5037165;28;20195;-80
2024/01/24 11:25:12;;;;;;;5.57;3.73;;;5.50;99.90;;;;;;5039290;28;20190;-80
2024/01/24 11:28:03;;;;;;;5.57;3.83;;;5.50;99.90;;;;;;5051117;28;20599;-81
2024/01/24 11:30:51;;;;;;;5.93;3.90;;;5.60;99.90;;;;;;5036429;28;20195;-81
2024/01/24 11:34:07;;;;;;;5.90;4.13;;;5.70;99.90;;;;;;5052157;28;20564;-81
2024/01/24 11:36:56;;;;;;;6.80;4.03;;;5.80;99.90;;;;;;5051001;28;20347;-80
2024/01/24 11:39:44;;;;;;;6.03;3.80;;;5.90;99.90;;;;;;5052406;28;20200;-82
2024/01/24 11:42:36;;;;;;;6.23;4.07;;;6.00;99.90;;;;;;5036749;28;20219;-81
2024/01/24 11:45:25;;;;;;;5.03;3.90;;;6.00;99.90;;;;;;5037710;28;20569;-82
2024/01/24 11:48:12;;;;;;;6.40;4.10;;;6.00;99.90;;;;;;5025421;28;20245;-77
2024/01/24 11:51:05;;;;;;;7.20;4.50;;;6.00;99.90;;;;;;5048758;28;20288;-78
2024/01/24 11:54:00;;;;;;;6.47;3.93;;;6.10;99.90;;;;;;5054837;28;20199;-80
2024/01/24 11:56:47;;;;;;;8.00;5.07;;;6.10;99.90;;;;;;5055250;28;20251;-79
2024/01/24 11:59:35;;;;;;;5.77;4.00;;;6.10;99.90;;;;;;5055436;28;20196;-79
2024/01/24 12:02:23;;;;;;;8.57;4.40;;;6.10;99.90;;;;;;5055646;28;20190;-80
2024/01/24 12:05:11;;;;;;;7.30;4.40;;;6.10;99.90;;;;;;5053764;28;20229;-79
2024/01/24 12:07:58;;;;;;;8.90;4.73;;;6.10;99.90;;;;;;5055061;28;20199;-79
2024/01/24 12:10:46;;;;;;;6.77;4.83;;;6.20;99.90;;;;;;5054118;28;20227;-79
2024/01/24 12:13:34;;;;;;;9.00;4.80;;;6.20;99.90;;;;;;5055426;28;20195;-79
2024/01/24 12:16:25;;;;;;;7.43;4.77;;;6.20;99.90;;;;;;5055000;28;20205;-79
2024/01/24 12:19:15;;;;;;;8.37;4.83;;;6.30;99.90;;;;;;5040724;28;20211;-81
2024/01/24 12:22:09;;;;;;;8.17;4.83;;;6.40;99.90;;;;;;5054886;28;20213;-84
2024/01/24 12:25:02;;;;;;;8.70;5.30;;;6.50;99.90;;;;;;5054412;28;20581;-81
2024/01/24 12:27:50;;;;;;;8.43;5.20;;;6.50;99.90;;;;;;5053891;28;20218;-82
2024/01/24 12:30:38;;;;;;;7.83;5.50;;;6.70;99.90;;;;;;5039487;28;20199;-82
2024/01/24 12:33:30;;;;;;;9.57;5.60;;;6.80;99.90;;;;;;5039290;28;20191;-82
2024/01/24 12:36:17;;;;;;;6.97;5.33;;;6.90;99.90;;;;;;5040362;28;20191;-83
2024/01/24 12:39:05;;;;;;;9.17;5.57;;;7.00;99.90;;;;;;5054454;28;20276;-82
2024/01/24 12:41:53;;;;;;;9.63;5.10;;;7.10;99.90;;;;;;5054369;28;20688;-82
2024/01/24 12:44:41;;;;;;;8.20;4.73;;;7.10;99.90;;;;;;5041057;28;20193;-82
2024/01/24 12:47:28;;;;;;;9.67;4.83;;;7.20;99.90;;;;;;5053836;28;20641;-81
2024/01/24 12:50:16;;;;;;;6.33;4.70;;;7.30;99.90;;;;;;5060879;28;20217;-83
2024/01/24 12:53:05;;;;;;;7.23;4.60;;;7.40;99.90;;;;;;5040183;28;20213;-81
2024/01/24 12:55:53;;;;;;;7.10;4.27;;;7.50;99.90;;;;;;5039925;28;20199;-81
2024/01/24 12:58:40;;;;;;;6.77;4.60;;;7.70;99.90;;;;;;5052544;28;20229;-84
2024/01/24 13:01:28;;;;;;;6.67;4.10;;;7.80;99.90;;;;;;5053681;28;20667;-83
2024/01/24 13:04:15;;;;;;;6.13;3.60;;;8.00;99.90;;;;;;5040012;28;20397;-84
2024/01/24 13:07:04;;;;;;;7.80;3.40;;;8.20;99.90;;;;;;5054552;28;20285;-85
2024/01/24 13:09:52;;;;;;;8.50;3.37;;;8.30;99.90;;;;;;5039959;28;20208;-85
2024/01/24 13:12:43;;;;;;;9.40;3.40;;;8.40;99.90;;;;;;5054369;28;20222;-83
2024/01/24 13:15:35;;;;;;;6.90;2.87;;;8.50;99.90;;;;;;5054509;28;20198;-84
2024/01/24 13:18:25;;;;;;;5.87;2.77;;;8.50;99.90;;;;;;5039327;28;20222;-85
2024/01/24 13:21:13;;;;;;;7.33;3.00;;;8.50;99.90;;;;;;5053367;28;20653;-85
2024/01/24 13:24:02;;;;;;;6.53;2.97;;;8.50;99.90;;;;;;5052983;28;20200;-84
2024/01/24 13:26:49;;;;;;;4.57;2.47;;;8.50;99.90;;;;;;5052995;28;20225;-84
2024/01/24 13:29:37;;;;;;;4.63;2.43;;;8.50;99.90;;;;;;5040171;28;20207;-86
2024/01/24 13:32:25;;;;;;;6.27;2.50;;;8.50;99.90;;;;;;5054144;28;20197;-86
2024/01/24 13:35:13;;;;;;;6.00;2.40;;;8.50;99.90;;;;;;5053007;28;20542;-88
2024/01/24 13:38:00;;;;;;;6.23;2.70;;;8.50;99.90;;;;;;5053603;28;20745;-82
2024/01/24 13:40:48;;;;;;;5.53;2.60;;;8.50;99.90;;;;;;5039574;28;20837;-86
2024/01/24 13:43:35;;;;;;;5.57;2.87;;;8.50;99.90;;;;;;5053845;28;20316;-85
2024/01/24 13:46:24;;;;;;;5.73;3.00;;;8.40;99.90;;;;;;5038208;28;20200;-86
2024/01/24 13:49:12;;;;;;;6.37;3.20;;;8.40;99.90;;;;;;5053185;28;20198;-86
2024/01/24 13:51:59;;;;;;;6.83;3.50;;;8.30;99.90;;;;;;5053638;28;20201;-87
2024/01/24 13:54:47;;;;;;;7.07;3.20;;;8.10;99.90;;;;;;5053062;28;20194;-86
2024/01/24 13:57:34;;;;;;;10.17;3.20;;;8.10;99.90;;;;;;5053374;28;20225;-84
2024/01/24 14:00:27;;;;;;;7.57;2.90;;;8.00;99.90;;;;;;5053350;28;20205;-83
2024/01/24 14:03:14;;;;;;;7.83;2.60;;;8.00;99.90;;;;;;5053692;28;20743;-83
2024/01/24 14:06:02;;;;;;;7.70;2.80;;;8.00;99.90;;;;;;5052667;28;20226;-82
2024/01/24 14:08:50;;;;;;;9.47;2.63;;;7.90;99.90;;;;;;5053067;28;20270;-83
2024/01/24 14:11:40;;;;;;;8.57;2.53;;;7.80;99.90;;;;;;5052701;28;20227;-83
2024/01/24 14:14:27;;;;;;;7.13;2.40;;;7.70;99.90;;;;;;5052595;28;20217;-84
2024/01/24 14:17:18;;;;;;;7.67;2.43;;;7.60;99.90;;;;;;5053191;28;20677;-84
2024/01/24 14:20:06;;;;;;;5.70;2.30;;;7.50;99.90;;;;;;5052652;28;20224;-84
2024/01/24 14:22:54;;;;;;;5.50;2.30;;;7.40;99.90;;;;;;5052068;28;20214;-83
2024/01/24 14:25:42;;;;;;;9.53;2.13;;;7.40;99.90;;;;;;5052586;28;20348;-82
2024/01/24 14:28:29;;;;;;;8.47;2.40;;;7.30;99.90;;;;;;5053194;28;20195;-84
2024/01/24 14:31:16;;;;;;;6.50;2.63;;;7.30;99.90;;;;;;5052355;28;20193;-85
2024/01/24 14:34:04;;;;;;;5.13;2.50;;;7.30;99.90;;;;;;5052593;28;20194;-82
2024/01/24 14:36:51;;;;;;;6.60;2.73;;;7.20;99.90;;;;;;5053040;28;20202;-84
2024/01/24 14:39:51;;;;;;;5.30;2.53;;;7.20;99.90;;;;;;5053398;28;20645;-83
2024/01/24 14:42:38;;;;;;;4.97;2.50;;;7.20;99.90;;;;;;5052413;28;20696;-82